Time;durP1;ratioP1;P1;durP2;ratioP2;P2;SDS_P1;SDS_P2;PMS_P1;PMS_P2;Temp;Humidity;BMP_temperature;BMP_pressure;BME280_temperature;BME280_humidity;BME280_pressure;Samples;Min_cycle;Max_cycle;Signal;HPM_P1;HPM_P2
2023/04/15 00:01:18;;;;;;;3.53;2.30;;;6.40;99.90;;;;;;5032237;28;20175;-70
2023/04/15 00:03:43;;;;;;;1.70;1.60;;;6.30;99.90;;;;;;5032365;28;20629;-70
2023/04/15 00:06:09;;;;;;;2.60;1.90;;;6.30;99.90;;;;;;5032371;28;20416;-69
2023/04/15 00:08:35;;;;;;;2.30;2.00;;;6.30;99.90;;;;;;5031742;28;20403;-70
2023/04/15 00:11:04;;;;;;;4.47;2.00;;;6.30;99.90;;;;;;5032231;28;20171;-69
2023/04/15 00:13:30;;;;;;;2.83;2.03;;;6.30;99.90;;;;;;5032059;28;20266;-70
2023/04/15 00:15:56;;;;;;;2.07;1.60;;;6.20;99.90;;;;;;5030794;28;20458;-70
2023/04/15 00:18:22;;;;;;;3.27;2.37;;;6.20;99.90;;;;;;5030243;28;20413;-70
2023/04/15 00:20:48;;;;;;;3.10;1.70;;;6.20;99.90;;;;;;5032081;28;20644;-70
2023/04/15 00:23:13;;;;;;;6.03;2.77;;;6.10;99.90;;;;;;5032090;28;20407;-70
2023/04/15 00:25:39;;;;;;;2.23;1.93;;;6.10;99.90;;;;;;5030740;28;20192;-70
2023/04/15 00:28:05;;;;;;;1.97;1.83;;;6.00;99.90;;;;;;5030518;28;20183;-69
2023/04/15 00:30:30;;;;;;;2.70;2.20;;;6.00;99.90;;;;;;5031993;28;20891;-70
2023/04/15 00:32:56;;;;;;;1.80;1.70;;;6.00;99.90;;;;;;5032015;28;20171;-69
2023/04/15 00:35:22;;;;;;;4.50;2.00;;;6.00;99.90;;;;;;5031552;28;20202;-69
2023/04/15 00:37:48;;;;;;;3.03;2.40;;;5.90;99.90;;;;;;5030189;28;20171;-70
2023/04/15 00:40:17;;;;;;;1.93;1.40;;;5.80;99.90;;;;;;5031792;28;20896;-69
2023/04/15 00:42:43;;;;;;;1.93;1.50;;;5.80;99.90;;;;;;5031683;28;20583;-69
2023/04/15 00:45:09;;;;;;;2.03;1.60;;;5.80;99.90;;;;;;5035772;28;20432;-70
2023/04/15 00:47:36;;;;;;;2.00;1.33;;;5.80;99.90;;;;;;5035771;28;20906;-69
2023/04/15 00:50:02;;;;;;;3.40;2.00;;;5.80;99.90;;;;;;5035892;28;20406;-70
2023/04/15 00:52:27;;;;;;;3.73;2.10;;;5.70;99.90;;;;;;5036161;28;20433;-70
2023/04/15 00:54:53;;;;;;;7.63;2.00;;;5.70;99.90;;;;;;5034406;28;20233;-69
2023/04/15 00:57:21;;;;;;;3.70;1.90;;;5.70;99.90;;;;;;5035569;28;20197;-70
2023/04/15 00:59:46;;;;;;;2.00;1.40;;;5.70;99.90;;;;;;5035713;28;20351;-69
2023/04/15 01:02:12;;;;;;;1.60;1.50;;;5.60;99.90;;;;;;5035734;28;20970;-70
2023/04/15 01:04:37;;;;;;;2.20;2.10;;;5.60;99.90;;;;;;5035525;28;20197;-73
2023/04/15 01:07:03;;;;;;;10.10;1.80;;;5.60;99.90;;;;;;5035288;28;20179;-69
2023/04/15 01:09:28;;;;;;;2.03;1.83;;;5.50;99.90;;;;;;5035376;28;20637;-69
2023/04/15 01:11:54;;;;;;;4.63;1.80;;;5.50;99.90;;;;;;5035471;28;20168;-70
2023/04/15 01:14:20;;;;;;;3.20;1.50;;;5.50;99.90;;;;;;5035104;28;20269;-69
2023/04/15 01:16:46;;;;;;;2.20;1.60;;;5.50;99.90;;;;;;5035230;28;20246;-69
2023/04/15 01:19:15;;;;;;;3.40;1.90;;;5.40;99.90;;;;;;5035193;28;20398;-69
2023/04/15 01:21:41;;;;;;;3.50;1.50;;;5.40;99.90;;;;;;5035325;28;20175;-70
2023/04/15 01:24:12;;;;;;;3.27;1.70;;;5.40;99.90;;;;;;5035147;28;20485;-70
2023/04/15 01:26:38;;;;;;;3.30;1.70;;;5.40;99.90;;;;;;5034011;28;20309;-69
2023/04/15 01:29:03;;;;;;;4.30;1.83;;;5.30;99.90;;;;;;5035013;28;20939;-70
2023/04/15 01:31:29;;;;;;;2.17;1.97;;;5.30;99.90;;;;;;5035090;28;20489;-70
2023/04/15 01:33:54;;;;;;;2.03;1.50;;;5.30;99.90;;;;;;5034904;28;20236;-70
2023/04/15 01:36:20;;;;;;;2.57;2.17;;;5.30;99.90;;;;;;5034812;28;20200;-70
2023/04/15 01:38:46;;;;;;;2.30;1.67;;;5.30;99.90;;;;;;5032572;28;20174;-70
2023/04/15 01:41:13;;;;;;;2.07;1.50;;;5.20;99.90;;;;;;5034015;28;20171;-69
2023/04/15 01:43:38;;;;;;;2.10;1.90;;;5.20;99.90;;;;;;5033791;28;20411;-70
2023/04/15 01:46:05;;;;;;;1.93;1.80;;;5.20;99.90;;;;;;5034172;28;20416;-69
2023/04/15 01:48:31;;;;;;;1.50;1.40;;;5.10;99.90;;;;;;5033803;28;20164;-69
2023/04/15 01:50:57;;;;;;;2.07;1.60;;;5.10;99.90;;;;;;5034572;28;20430;-69
2023/04/15 01:53:24;;;;;;;4.33;1.60;;;5.10;99.90;;;;;;5033529;28;20415;-69
2023/04/15 01:55:50;;;;;;;2.13;1.90;;;5.10;99.90;;;;;;5032094;28;20504;-70
2023/04/15 01:58:17;;;;;;;2.70;1.83;;;5.00;99.90;;;;;;5033641;28;20410;-69
2023/04/15 02:00:43;;;;;;;4.73;2.13;;;5.00;99.90;;;;;;5033407;28;20418;-69
2023/04/15 02:03:08;;;;;;;1.97;1.63;;;5.00;99.90;;;;;;5034500;28;20466;-69
2023/04/15 02:05:34;;;;;;;2.27;1.60;;;5.00;99.90;;;;;;5034570;28;20587;-69
2023/04/15 02:07:59;;;;;;;4.10;1.63;;;5.00;99.90;;;;;;5034102;28;20180;-70
2023/04/15 02:10:26;;;;;;;3.13;2.73;;;5.00;99.90;;;;;;5034480;28;20178;-70
2023/04/15 02:12:51;;;;;;;3.37;2.70;;;4.90;99.90;;;;;;5034054;28;20791;-70
2023/04/15 02:15:17;;;;;;;1.97;1.33;;;4.90;99.90;;;;;;5034132;28;20493;-70
2023/04/15 02:17:44;;;;;;;1.80;1.50;;;4.90;99.90;;;;;;5032866;28;20175;-69
2023/04/15 02:20:10;;;;;;;1.50;1.40;;;4.90;99.90;;;;;;5034305;28;20186;-69
2023/04/15 02:22:36;;;;;;;1.60;1.50;;;4.90;99.90;;;;;;5034212;28;20483;-70
2023/04/15 02:25:02;;;;;;;4.50;2.40;;;4.90;99.90;;;;;;5034163;28;21034;-70
2023/04/15 02:27:27;;;;;;;1.47;1.20;;;4.90;99.90;;;;;;5033836;28;20633;-70
2023/04/15 02:29:53;;;;;;;2.33;2.13;;;4.90;99.90;;;;;;5034108;28;20175;-70
2023/04/15 02:32:20;;;;;;;5.63;3.33;;;4.90;99.90;;;;;;5032832;28;20179;-69
2023/04/15 02:34:46;;;;;;;4.13;3.10;;;4.80;99.90;;;;;;5033920;28;20274;-70
2023/04/15 02:37:12;;;;;;;2.10;1.90;;;4.80;99.90;;;;;;5032373;28;20545;-69
2023/04/15 02:39:38;;;;;;;3.27;2.03;;;4.80;99.90;;;;;;5033940;28;20583;-69
2023/04/15 02:42:04;;;;;;;2.27;1.90;;;4.80;99.90;;;;;;5032528;28;20556;-69
2023/04/15 02:44:31;;;;;;;3.63;1.97;;;4.70;99.90;;;;;;5033579;28;20215;-69
2023/04/15 02:46:57;;;;;;;2.60;2.20;;;4.70;99.90;;;;;;5033496;28;20398;-70
2023/04/15 02:49:24;;;;;;;2.07;1.40;;;4.70;99.90;;;;;;5033653;28;20896;-69
2023/04/15 02:51:50;;;;;;;2.17;1.60;;;4.70;99.90;;;;;;5033708;28;20417;-70
2023/04/15 02:54:21;;;;;;;2.40;1.80;;;4.60;99.90;;;;;;5033376;28;20479;-70
2023/04/15 02:56:47;;;;;;;1.90;1.80;;;4.60;99.90;;;;;;5033629;28;20411;-70
2023/04/15 02:59:12;;;;;;;2.47;1.80;;;4.60;99.90;;;;;;5033260;28;20408;-69
2023/04/15 03:01:38;;;;;;;4.00;2.07;;;4.60;99.90;;;;;;5033452;28;20250;-69
2023/04/15 03:04:03;;;;;;;1.93;1.70;;;4.60;99.90;;;;;;5032177;28;20195;-69
2023/04/15 03:06:30;;;;;;;2.97;1.70;;;4.60;99.90;;;;;;5031943;28;20176;-70
2023/04/15 03:08:56;;;;;;;1.87;1.53;;;4.50;99.90;;;;;;5033042;28;20259;-69
2023/04/15 03:11:22;;;;;;;3.30;1.73;;;4.50;99.90;;;;;;5033222;28;20438;-70
2023/04/15 03:13:47;;;;;;;3.40;1.80;;;4.50;99.90;;;;;;5033007;28;20265;-69
2023/04/15 03:16:13;;;;;;;2.67;1.80;;;4.50;99.90;;;;;;5033280;28;20241;-70
2023/04/15 03:18:38;;;;;;;2.13;1.37;;;4.40;99.90;;;;;;5032912;28;20176;-70
2023/04/15 03:21:05;;;;;;;2.00;1.83;;;4.40;99.90;;;;;;5033190;28;20171;-70
2023/04/15 03:23:31;;;;;;;1.50;1.40;;;4.40;99.90;;;;;;5032985;28;20187;-69
2023/04/15 03:25:57;;;;;;;2.60;1.70;;;4.40;99.90;;;;;;5033109;28;20439;-69
2023/04/15 03:28:23;;;;;;;1.97;1.77;;;4.40;99.90;;;;;;5032688;28;20822;-69
2023/04/15 03:30:48;;;;;;;2.50;2.07;;;4.40;99.90;;;;;;5032896;28;20414;-69
2023/04/15 03:33:14;;;;;;;2.13;1.60;;;4.40;99.90;;;;;;5032995;28;20172;-69
2023/04/15 03:35:40;;;;;;;5.00;1.90;;;4.40;99.90;;;;;;5032396;28;20203;-70
2023/04/15 03:38:05;;;;;;;3.33;1.80;;;4.40;99.90;;;;;;5032384;28;20274;-69
2023/04/15 03:40:31;;;;;;;4.33;1.97;;;4.40;99.90;;;;;;5032630;28;20629;-69
2023/04/15 03:42:57;;;;;;;3.87;1.90;;;4.40;99.90;;;;;;5032785;28;20175;-70
2023/04/15 03:45:22;;;;;;;3.30;2.00;;;4.40;99.90;;;;;;5032729;28;20281;-69
2023/04/15 03:47:48;;;;;;;3.60;1.80;;;4.40;99.90;;;;;;5032434;28;20592;-69
2023/04/15 03:50:14;;;;;;;2.73;2.53;;;4.40;99.90;;;;;;5032256;28;20175;-70
2023/04/15 03:52:39;;;;;;;5.50;1.80;;;4.40;99.90;;;;;;5032561;28;20763;-69
2023/04/15 03:55:05;;;;;;;2.70;2.17;;;4.30;99.90;;;;;;5032330;28;20454;-70
2023/04/15 03:57:31;;;;;;;2.70;1.80;;;4.30;99.90;;;;;;5030836;28;20171;-70
2023/04/15 03:59:56;;;;;;;1.73;1.60;;;4.30;99.90;;;;;;5032429;28;20402;-70
2023/04/15 04:02:22;;;;;;;2.30;2.10;;;4.30;99.90;;;;;;5032461;28;20667;-70
2023/04/15 04:04:47;;;;;;;4.70;2.60;;;4.30;99.90;;;;;;5032278;28;20227;-70
2023/04/15 04:07:17;;;;;;;2.33;2.13;;;4.30;99.90;;;;;;5032084;28;20246;-69
2023/04/15 04:09:43;;;;;;;5.40;3.40;;;4.30;99.90;;;;;;5032290;28;20180;-71
2023/04/15 04:12:08;;;;;;;42.20;22.40;;;4.30;99.90;;;;;;5031929;28;20406;-70
2023/04/15 04:14:34;;;;;;;27.23;15.07;;;4.30;99.90;;;;;;5032192;28;20300;-69
2023/04/15 04:16:59;;;;;;;14.63;7.87;;;4.30;99.90;;;;;;5030032;28;20221;-69
2023/04/15 04:19:25;;;;;;;5.37;4.20;;;4.30;99.90;;;;;;5032082;28;20163;-69
2023/04/15 04:21:51;;;;;;;6.23;3.23;;;4.30;99.90;;;;;;5030950;28;20264;-70
2023/04/15 04:24:16;;;;;;;4.80;3.10;;;4.30;99.90;;;;;;5032111;28;20187;-70
2023/04/15 04:26:42;;;;;;;3.23;2.37;;;4.30;99.90;;;;;;5031935;28;20783;-70
2023/04/15 04:29:08;;;;;;;3.33;2.60;;;4.30;99.90;;;;;;5031836;28;20178;-69
2023/04/15 04:31:33;;;;;;;3.60;3.17;;;4.30;99.90;;;;;;5031984;28;20175;-69
2023/04/15 04:33:59;;;;;;;4.27;2.77;;;4.30;99.90;;;;;;5031524;28;20597;-69
2023/04/15 04:36:25;;;;;;;4.60;2.70;;;4.30;99.90;;;;;;5031755;28;20222;-71
2023/04/15 04:38:50;;;;;;;3.73;2.47;;;4.30;99.90;;;;;;5031562;28;20163;-69
2023/04/15 04:41:17;;;;;;;4.50;3.17;;;4.30;99.90;;;;;;5030530;28;20410;-69
2023/04/15 04:43:42;;;;;;;4.03;2.97;;;4.30;99.90;;;;;;5031707;28;20170;-69
2023/04/15 04:46:08;;;;;;;6.93;4.20;;;4.40;99.90;;;;;;5031903;28;20417;-70
2023/04/15 04:48:34;;;;;;;7.57;3.77;;;4.40;99.90;;;;;;5031559;28;20547;-70
2023/04/15 04:51:00;;;;;;;4.50;3.50;;;4.40;99.90;;;;;;5031891;28;20414;-70
2023/04/15 04:53:26;;;;;;;4.07;2.70;;;4.40;99.90;;;;;;5030424;28;20175;-70
2023/04/15 04:55:52;;;;;;;4.60;2.80;;;4.50;99.90;;;;;;5031603;28;20332;-69
2023/04/15 04:58:18;;;;;;;5.70;2.80;;;4.50;99.90;;;;;;5031434;28;20442;-70
2023/04/15 05:00:43;;;;;;;4.83;2.37;;;4.50;99.90;;;;;;5031742;28;20195;-69
2023/04/15 05:03:09;;;;;;;8.47;4.50;;;4.60;99.90;;;;;;5030372;28;20172;-70
2023/04/15 05:05:35;;;;;;;3.60;3.00;;;4.70;99.90;;;;;;5031796;28;20223;-71
2023/04/15 05:08:01;;;;;;;3.17;2.60;;;4.70;99.90;;;;;;5030565;28;20175;-70
2023/04/15 05:10:27;;;;;;;2.93;2.50;;;4.80;99.90;;;;;;5031591;28;20417;-69
2023/04/15 05:12:52;;;;;;;4.87;3.47;;;4.80;99.90;;;;;;5031513;28;20191;-70
2023/04/15 05:15:18;;;;;;;3.40;2.80;;;4.90;99.90;;;;;;5031574;28;20236;-69
2023/04/15 05:17:43;;;;;;;5.47;3.23;;;5.00;99.90;;;;;;5031287;28;20633;-71
2023/04/15 05:20:09;;;;;;;4.83;3.40;;;5.10;99.90;;;;;;5031690;28;20178;-70
2023/04/15 05:22:36;;;;;;;4.00;3.03;;;5.20;99.90;;;;;;5031658;28;20168;-70
2023/04/15 05:25:01;;;;;;;5.43;2.90;;;5.30;99.90;;;;;;5031624;28;20798;-70
2023/04/15 05:27:27;;;;;;;5.70;3.50;;;5.50;99.90;;;;;;5031429;28;20497;-70
2023/04/15 05:29:52;;;;;;;4.23;3.83;;;5.70;99.90;;;;;;5034522;28;20259;-70
2023/04/15 05:32:18;;;;;;;3.80;3.40;;;5.90;99.90;;;;;;5034965;28;20255;-70
2023/04/15 05:34:43;;;;;;;5.70;3.37;;;6.00;99.90;;;;;;5034768;28;20203;-70
2023/04/15 05:37:09;;;;;;;4.63;3.80;;;6.30;99.90;;;;;;5034939;28;20213;-70
2023/04/15 05:39:34;;;;;;;7.17;3.90;;;6.60;99.90;;;;;;5035072;28;20239;-70
2023/04/15 05:42:01;;;;;;;3.23;2.93;;;6.90;99.90;;;;;;5035157;28;20202;-70
2023/04/15 05:44:26;;;;;;;6.00;3.20;;;7.20;99.90;;;;;;5033812;28;20213;-71
2023/04/15 05:46:52;;;;;;;5.70;4.00;;;7.70;99.90;;;;;;5034805;28;20504;-70
2023/04/15 05:49:17;;;;;;;5.33;3.07;;;8.40;99.90;;;;;;5034853;28;20202;-70
2023/04/15 05:51:43;;;;;;;6.77;3.60;;;9.10;99.90;;;;;;5033634;28;20641;-70
2023/04/15 05:54:08;;;;;;;4.67;3.03;;;9.90;99.90;;;;;;5034797;28;20253;-70
2023/04/15 05:56:34;;;;;;;3.53;3.13;;;10.70;99.90;;;;;;5034828;28;20248;-72
2023/04/15 05:58:59;;;;;;;5.67;3.10;;;11.50;99.90;;;;;;5034578;28;20164;-70
2023/04/15 06:01:25;;;;;;;5.33;3.80;;;12.30;99.90;;;;;;5035303;28;20747;-70
2023/04/15 06:03:50;;;;;;;3.83;2.80;;;13.10;99.90;;;;;;5034717;28;20164;-70
2023/04/15 06:06:16;;;;;;;4.00;2.80;;;13.70;99.90;;;;;;5034778;28;20167;-71
2023/04/15 06:08:41;;;;;;;5.03;3.30;;;14.20;99.90;;;;;;5034304;28;20168;-71
2023/04/15 06:11:07;;;;;;;5.10;3.23;;;14.60;99.90;;;;;;5034769;28;20640;-70
2023/04/15 06:13:33;;;;;;;4.73;3.20;;;14.90;99.90;;;;;;5034463;28;20184;-69
2023/04/15 06:15:59;;;;;;;6.80;3.77;;;15.00;99.90;;;;;;5034308;28;20195;-68
2023/04/15 06:18:24;;;;;;;5.10;3.83;;;15.00;99.90;;;;;;5034131;28;20464;-69
2023/04/15 06:20:50;;;;;;;4.43;3.00;;;14.60;98.10;;;;;;5033207;28;20275;-69
2023/04/15 06:23:16;;;;;;;5.80;3.10;;;14.30;97.00;;;;;;5034302;28;20191;-70
2023/04/15 06:25:41;;;;;;;5.73;3.87;;;14.10;98.20;;;;;;5034304;28;20241;-69
2023/04/15 06:28:07;;;;;;;5.20;2.83;;;14.10;99.20;;;;;;5034023;28;20172;-70
2023/04/15 06:30:33;;;;;;;4.73;2.70;;;14.00;99.90;;;;;;5034293;28;20222;-69
2023/04/15 06:32:58;;;;;;;4.27;3.23;;;14.00;99.90;;;;;;5032938;28;20281;-70
2023/04/15 06:35:24;;;;;;;4.60;3.23;;;14.00;99.90;;;;;;5033879;28;20804;-69
2023/04/15 06:37:50;;;;;;;3.80;3.37;;;14.10;99.90;;;;;;5033756;28;20200;-69
2023/04/15 06:40:16;;;;;;;4.87;3.20;;;14.20;99.90;;;;;;5033605;28;20198;-70
2023/04/15 06:42:41;;;;;;;2.90;2.70;;;14.40;99.90;;;;;;5034057;28;20846;-70
2023/04/15 06:45:07;;;;;;;2.93;2.60;;;14.50;99.90;;;;;;5032417;28;20191;-69
2023/04/15 06:47:33;;;;;;;3.80;2.80;;;14.60;99.80;;;;;;5033671;28;20652;-70
2023/04/15 06:49:58;;;;;;;5.10;3.10;;;14.80;98.70;;;;;;5034067;28;20402;-70
2023/04/15 06:52:24;;;;;;;4.87;4.20;;;15.00;98.80;;;;;;5033800;28;20174;-70
2023/04/15 06:54:50;;;;;;;4.70;3.27;;;15.30;99.00;;;;;;5033568;28;20201;-70
2023/04/15 06:57:15;;;;;;;4.70;3.70;;;15.70;98.80;;;;;;5033484;28;20184;-69
2023/04/15 06:59:42;;;;;;;5.80;3.20;;;16.10;96.70;;;;;;5033734;28;20218;-70
2023/04/15 07:02:11;;;;;;;4.67;3.80;;;16.90;96.30;;;;;;5033624;28;20194;-70
2023/04/15 07:04:36;;;;;;;7.23;3.60;;;17.90;93.50;;;;;;5033497;28;20458;-69
2023/04/15 07:07:02;;;;;;;5.07;3.73;;;18.80;90.20;;;;;;5033069;28;20541;-69
2023/04/15 07:09:27;;;;;;;4.97;4.00;;;19.30;80.70;;;;;;5033589;28;20617;-69
2023/04/15 07:11:53;;;;;;;14.53;4.07;;;19.50;74.00;;;;;;5033309;28;20175;-69
2023/04/15 07:14:18;;;;;;;5.33;4.80;;;19.40;71.00;;;;;;5032093;28;20239;-70
2023/04/15 07:16:44;;;;;;;4.60;4.20;;;19.10;68.90;;;;;;5033244;28;20203;-69
2023/04/15 07:19:10;;;;;;;6.50;4.43;;;19.00;70.40;;;;;;5033009;28;20174;-70
2023/04/15 07:21:36;;;;;;;6.23;4.90;;;19.10;70.80;;;;;;5033117;28;20166;-69
2023/04/15 07:24:02;;;;;;;6.63;4.77;;;19.00;68.80;;;;;;5033126;28;20426;-69
2023/04/15 07:26:27;;;;;;;6.60;4.70;;;18.90;68.70;;;;;;5033167;28;20418;-70
2023/04/15 07:28:53;;;;;;;5.53;4.87;;;18.80;69.10;;;;;;5032777;28;20180;-69
2023/04/15 07:31:18;;;;;;;5.90;5.30;;;18.70;69.30;;;;;;5033087;28;20171;-69
2023/04/15 07:33:44;;;;;;;6.60;4.83;;;18.70;70.40;;;;;;5032806;28;20179;-70
2023/04/15 07:36:09;;;;;;;8.57;4.97;;;19.00;70.30;;;;;;5032933;28;20191;-70
2023/04/15 07:38:35;;;;;;;7.20;5.60;;;19.30;69.50;;;;;;5032672;28;20583;-70
2023/04/15 07:41:01;;;;;;;5.50;4.20;;;19.70;68.60;;;;;;5033017;28;20171;-69
2023/04/15 07:43:26;;;;;;;8.20;5.10;;;20.00;67.80;;;;;;5032977;28;20164;-70
2023/04/15 07:45:52;;;;;;;8.33;4.60;;;20.20;65.80;;;;;;5032685;28;20521;-70
2023/04/15 07:48:17;;;;;;;8.60;5.33;;;20.30;65.70;;;;;;5032391;28;20258;-70
2023/04/15 07:50:43;;;;;;;4.73;4.23;;;20.30;64.40;;;;;;5033227;28;20182;-70
2023/04/15 07:53:08;;;;;;;5.00;4.60;;;20.40;64.20;;;;;;5031969;28;20179;-69
2023/04/15 07:55:34;;;;;;;7.03;4.67;;;20.50;64.90;;;;;;5032785;28;20207;-69
2023/04/15 07:58:00;;;;;;;7.23;4.13;;;20.60;64.40;;;;;;5032285;28;20168;-70
2023/04/15 08:00:25;;;;;;;4.97;4.57;;;20.90;64.00;;;;;;5032539;28;20167;-69
2023/04/15 08:02:52;;;;;;;5.40;4.60;;;21.00;62.50;;;;;;5032553;28;20625;-69
2023/04/15 08:05:18;;;;;;;6.90;4.90;;;21.10;61.50;;;;;;5032456;28;20195;-70
2023/04/15 08:07:45;;;;;;;7.17;5.17;;;21.20;61.40;;;;;;5032453;28;20551;-69
2023/04/15 08:10:11;;;;;;;5.50;5.00;;;21.40;62.50;;;;;;5032501;28;20421;-70
2023/04/15 08:12:36;;;;;;;6.37;4.70;;;21.80;62.10;;;;;;5032365;28;20434;-69
2023/04/15 08:15:02;;;;;;;9.57;4.97;;;22.40;61.60;;;;;;5032269;28;20540;-70
2023/04/15 08:17:28;;;;;;;4.63;4.23;;;23.10;59.60;;;;;;5032160;28;20263;-70
2023/04/15 08:19:53;;;;;;;5.17;4.40;;;23.60;57.10;;;;;;5032215;28;20914;-69
2023/04/15 08:22:19;;;;;;;5.37;4.87;;;24.10;56.40;;;;;;5031004;28;20233;-70
2023/04/15 08:24:44;;;;;;;5.03;4.53;;;24.30;54.40;;;;;;5032123;28;20683;-70
2023/04/15 08:27:10;;;;;;;5.60;5.20;;;24.40;53.60;;;;;;5031985;28;20664;-70
2023/04/15 08:29:35;;;;;;;5.63;4.93;;;24.40;53.50;;;;;;5032229;28;20239;-70
2023/04/15 08:32:01;;;;;;;4.73;3.93;;;24.70;52.80;;;;;;5032231;28;20251;-70
2023/04/15 08:34:27;;;;;;;4.67;4.10;;;25.00;51.70;;;;;;5031977;28;20580;-70
2023/04/15 08:36:53;;;;;;;5.10;4.60;;;25.00;50.40;;;;;;5031760;28;20176;-69
2023/04/15 08:39:18;;;;;;;3.43;3.13;;;24.90;49.40;;;;;;5030833;28;20446;-70
2023/04/15 08:41:55;;;;;;;2.73;2.50;;;24.10;45.90;;;;;;5032111;28;20168;-69
2023/04/15 08:44:23;;;;;;;3.27;2.63;;;23.40;45.40;;;;;;5030826;28;20187;-70
2023/04/15 08:46:50;;;;;;;5.07;3.83;;;23.30;47.10;;;;;;5032011;28;20410;-72
2023/04/15 08:49:18;;;;;;;3.83;3.30;;;22.90;46.40;;;;;;5031690;28;20444;-69
2023/04/15 08:51:44;;;;;;;3.30;3.00;;;22.90;47.20;;;;;;5030809;28;20413;-70
2023/04/15 08:54:09;;;;;;;4.10;3.20;;;23.40;48.90;;;;;;5030614;28;20507;-70
2023/04/15 08:56:36;;;;;;;2.43;2.23;;;24.00;48.70;;;;;;5031826;28;20449;-71
2023/04/15 08:59:02;;;;;;;2.80;2.20;;;24.10;46.90;;;;;;5031781;28;20181;-70
2023/04/15 09:01:28;;;;;;;1.90;1.80;;;24.20;47.10;;;;;;5031820;28;20946;-70
2023/04/15 09:03:55;;;;;;;2.87;2.27;;;24.80;46.70;;;;;;5033148;28;20429;-70
2023/04/15 09:06:21;;;;;;;2.43;1.90;;;25.60;44.60;;;;;;5035723;28;20199;-70
2023/04/15 09:08:48;;;;;;;2.03;1.57;;;26.20;43.80;;;;;;5034390;28;20421;-70
2023/04/15 09:11:13;;;;;;;1.70;1.60;;;26.60;42.10;;;;;;5035667;28;20423;-70
2023/04/15 09:13:39;;;;;;;1.70;1.60;;;27.20;40.70;;;;;;5034219;28;20438;-71
2023/04/15 09:16:05;;;;;;;2.57;2.20;;;27.40;40.00;;;;;;5035646;28;20282;-70
2023/04/15 09:18:36;;;;;;;2.27;2.07;;;27.90;39.90;;;;;;5035271;28;20286;-71
2023/04/15 09:21:10;;;;;;;2.23;2.00;;;28.20;38.20;;;;;;5035556;28;20416;-71
2023/04/15 09:23:38;;;;;;;2.00;1.67;;;28.80;38.80;;;;;;5035474;28;20493;-72
2023/04/15 09:26:05;;;;;;;1.83;1.73;;;29.20;37.40;;;;;;5035434;28;20774;-70
2023/04/15 09:28:31;;;;;;;2.10;1.90;;;29.20;36.40;;;;;;5035332;28;20410;-70
2023/04/15 09:31:01;;;;;;;2.47;1.50;;;29.00;35.70;;;;;;5035494;28;20398;-70
2023/04/15 09:33:28;;;;;;;1.90;1.80;;;28.60;35.50;;;;;;5035509;28;20164;-70
2023/04/15 09:36:03;;;;;;;1.80;1.70;;;28.30;36.00;;;;;;5035707;28;20485;-70
2023/04/15 09:38:29;;;;;;;2.10;2.00;;;28.20;36.80;;;;;;5034992;28;20456;-70
2023/04/15 09:40:56;;;;;;;2.23;2.03;;;28.40;36.30;;;;;;5034067;28;20406;-70
2023/04/15 09:43:21;;;;;;;2.30;2.10;;;28.60;35.80;;;;;;5035313;28;20412;-70
2023/04/15 09:45:52;;;;;;;2.10;1.90;;;29.00;36.20;;;;;;5035042;28;20516;-70
2023/04/15 09:48:23;;;;;;;2.70;2.50;;;29.70;36.00;;;;;;5034947;28;20209;-70
2023/04/15 09:50:49;;;;;;;2.00;1.80;;;29.90;34.60;;;;;;5035072;28;20410;-70
2023/04/15 09:53:17;;;;;;;3.43;2.10;;;29.80;35.00;;;;;;5035005;28;20414;-71
2023/04/15 09:55:45;;;;;;;3.77;3.47;;;29.30;34.40;;;;;;5034821;28;20548;-70
2023/04/15 09:58:22;;;;;;;3.23;2.80;;;28.70;35.00;;;;;;5034804;28;20831;-70
2023/04/15 10:00:49;;;;;;;2.90;2.10;;;28.00;35.60;;;;;;5034934;28;20497;-70
2023/04/15 10:03:20;;;;;;;3.90;2.47;;;27.60;36.20;;;;;;5034731;28;20410;-70
2023/04/15 10:05:47;;;;;;;2.97;2.57;;;27.60;37.00;;;;;;5034791;28;20434;-70
2023/04/15 10:08:15;;;;;;;2.20;1.90;;;27.90;37.30;;;;;;5033479;28;20445;-70
2023/04/15 10:10:40;;;;;;;2.40;2.20;;;28.90;37.50;;;;;;5034773;28;21147;-70
2023/04/15 10:13:07;;;;;;;2.10;1.90;;;29.90;36.40;;;;;;5034543;28;20474;-70
2023/04/15 10:15:33;;;;;;;2.53;2.33;;;30.70;34.50;;;;;;5033279;28;20234;-70
2023/04/15 10:18:00;;;;;;;3.47;2.80;;;31.90;34.00;;;;;;5034324;28;20959;-70
2023/04/15 10:20:27;;;;;;;2.57;2.23;;;33.30;33.30;;;;;;5033157;28;20774;-71
2023/04/15 10:22:53;;;;;;;3.23;2.93;;;34.70;32.00;;;;;;5034581;28;20787;-71
2023/04/15 10:25:19;;;;;;;2.50;1.90;;;35.80;30.40;;;;;;5033944;28;20817;-72
2023/04/15 10:27:47;;;;;;;2.50;2.30;;;36.80;30.10;;;;;;5034043;28;20406;-72
2023/04/15 10:30:14;;;;;;;2.77;2.53;;;37.00;28.70;;;;;;5034399;28;20746;-71
2023/04/15 10:32:40;;;;;;;2.47;2.27;;;36.80;28.60;;;;;;5033994;28;20501;-71
2023/04/15 10:35:08;;;;;;;2.30;2.20;;;37.00;28.50;;;;;;5034136;28;20544;-71
2023/04/15 10:37:37;;;;;;;1.80;1.70;;;35.90;27.70;;;;;;5033739;28;20410;-71
2023/04/15 10:40:33;;;;;;;1.80;1.70;;;34.80;28.50;;;;;;5034066;28;20438;-70
2023/04/15 10:43:00;;;;;;;6.20;5.50;;;33.20;28.70;;;;;;5028591;28;20418;-70
2023/04/15 10:45:33;;;;;;;2.10;1.90;;;33.00;29.30;;;;;;5034023;28;20437;-70
2023/04/15 10:48:02;;;;;;;2.50;1.93;;;32.90;29.20;;;;;;5033705;28;20419;-70
2023/04/15 10:50:29;;;;;;;2.53;2.33;;;32.00;29.10;;;;;;5033952;28;20414;-70
2023/04/15 10:52:56;;;;;;;2.30;1.93;;;31.00;29.80;;;;;;5033859;28;20438;-69
2023/04/15 10:55:24;;;;;;;2.40;2.20;;;30.20;30.20;;;;;;5033657;28;20464;-70
2023/04/15 10:57:54;;;;;;;2.73;2.53;;;30.10;31.90;;;;;;5033533;28;20434;-70
2023/04/15 11:00:24;;;;;;;2.07;1.73;;;30.30;31.40;;;;;;5032624;28;20476;-70
2023/04/15 11:02:53;;;;;;;2.23;1.90;;;30.30;31.50;;;;;;5033393;28;20425;-72
2023/04/15 11:05:20;;;;;;;4.73;1.97;;;30.30;31.40;;;;;;5033623;28;20422;-71
2023/04/15 11:07:47;;;;;;;2.43;2.23;;;30.60;31.90;;;;;;5033289;28;20438;-70
2023/04/15 11:10:13;;;;;;;1.80;1.67;;;31.40;31.70;;;;;;5033426;28;20421;-70
2023/04/15 11:12:39;;;;;;;2.17;1.97;;;31.30;31.40;;;;;;5033512;28;20509;-71
2023/04/15 11:15:26;;;;;;;2.10;1.70;;;30.60;31.70;;;;;;5033863;28;20222;-71
2023/04/15 11:17:51;;;;;;;2.90;2.30;;;31.20;32.30;;;;;;5033116;28;20395;-70
2023/04/15 11:20:17;;;;;;;3.40;2.60;;;31.90;31.50;;;;;;5033227;28;20462;-70
2023/04/15 11:22:47;;;;;;;2.00;1.80;;;31.70;30.50;;;;;;5031808;28;20766;-70
2023/04/15 11:25:23;;;;;;;2.50;2.30;;;31.10;31.30;;;;;;5033086;28;20462;-70
2023/04/15 11:27:49;;;;;;;2.47;2.30;;;31.20;31.70;;;;;;5032840;28;20401;-71
2023/04/15 11:30:23;;;;;;;1.70;1.60;;;30.80;31.20;;;;;;5033130;28;20795;-71
2023/04/15 11:32:49;;;;;;;3.13;2.20;;;30.00;31.60;;;;;;5031971;28;21089;-70
2023/04/15 11:35:16;;;;;;;2.80;2.60;;;29.10;32.50;;;;;;5032960;28;20446;-70
2023/04/15 11:37:42;;;;;;;4.00;3.70;;;28.60;33.20;;;;;;5032736;28;20413;-70
2023/04/15 11:40:08;;;;;;;2.73;2.50;;;28.80;34.30;;;;;;5032907;28;20410;-71
2023/04/15 11:42:34;;;;;;;2.17;1.97;;;29.80;34.40;;;;;;5032953;28;20172;-70
2023/04/15 11:45:13;;;;;;;2.10;2.00;;;30.40;33.30;;;;;;5032881;28;20513;-70
2023/04/15 11:47:40;;;;;;;2.20;2.00;;;29.80;32.60;;;;;;5032630;28;20242;-70
2023/04/15 11:50:13;;;;;;;2.23;2.03;;;28.90;33.10;;;;;;5032902;28;20418;-70
2023/04/15 11:52:38;;;;;;;2.17;2.07;;;28.00;33.60;;;;;;5032852;28;20394;-69
2023/04/15 11:55:07;;;;;;;9.10;1.83;;;27.10;34.60;;;;;;5032751;28;20452;-70
2023/04/15 11:57:34;;;;;;;1.70;1.60;;;26.30;35.60;;;;;;5032601;28;20194;-70
2023/04/15 11:59:59;;;;;;;2.70;2.27;;;25.60;36.40;;;;;;5032836;28;20398;-70
2023/04/15 12:02:31;;;;;;;2.00;1.90;;;24.80;37.40;;;;;;5032675;28;20437;-69
2023/04/15 12:05:05;;;;;;;4.30;2.30;;;24.00;38.10;;;;;;5032310;28;20195;-70
2023/04/15 12:07:31;;;;;;;2.30;2.00;;;23.20;38.60;;;;;;5032204;28;20469;-69
2023/04/15 12:09:57;;;;;;;2.47;2.10;;;22.40;39.60;;;;;;5031211;28;20442;-69
2023/04/15 12:12:29;;;;;;;3.07;2.67;;;21.80;40.60;;;;;;5032384;28;20457;-69
2023/04/15 12:14:55;;;;;;;2.63;2.43;;;21.30;41.70;;;;;;5031083;28;20241;-69
2023/04/15 12:17:22;;;;;;;3.40;3.10;;;20.80;42.90;;;;;;5032287;28;20398;-69
2023/04/15 12:19:48;;;;;;;3.57;3.27;;;20.40;43.80;;;;;;5031051;28;20501;-70
2023/04/15 12:22:16;;;;;;;4.17;3.87;;;20.10;44.70;;;;;;5032367;28;20463;-70
2023/04/15 12:24:45;;;;;;;4.13;3.73;;;19.90;45.80;;;;;;5030960;28;20438;-69
2023/04/15 12:27:12;;;;;;;5.90;5.40;;;19.60;46.20;;;;;;5031902;28;20489;-70
2023/04/15 12:29:39;;;;;;;7.37;6.77;;;19.20;47.30;;;;;;5032268;28;20785;-70
2023/04/15 12:32:10;;;;;;;6.50;6.00;;;19.00;48.10;;;;;;5032165;28;20414;-70
2023/04/15 12:34:41;;;;;;;6.97;6.27;;;18.90;48.40;;;;;;5032135;28;20951;-69
2023/04/15 12:37:09;;;;;;;7.40;6.70;;;18.90;48.60;;;;;;5030447;28;20410;-70
2023/04/15 12:39:40;;;;;;;9.13;8.23;;;18.90;49.10;;;;;;5031572;28;20407;-70
2023/04/15 12:42:06;;;;;;;8.63;7.00;;;18.80;49.30;;;;;;5032150;28;20438;-70
2023/04/15 12:44:33;;;;;;;7.47;6.77;;;18.50;49.60;;;;;;5032089;28;20767;-69
2023/04/15 12:46:58;;;;;;;8.60;7.40;;;18.40;50.70;;;;;;5031798;28;20401;-70